createdAt,value
2017-12-16T00:02:14.643Z,99.90
2017-12-16T00:04:42.651Z,99.90
2017-12-16T00:07:10.712Z,99.90
2017-12-16T00:09:38.911Z,99.90
2017-12-16T00:12:06.992Z,99.90
2017-12-16T00:14:35.936Z,99.90
2017-12-16T00:17:04.125Z,99.90
2017-12-16T00:19:32.192Z,99.90
2017-12-16T00:22:00.263Z,99.90
2017-12-16T00:24:28.431Z,99.90
2017-12-16T00:26:56.443Z,99.90
2017-12-16T00:29:24.513Z,99.90
2017-12-16T00:31:52.721Z,99.90
2017-12-16T00:34:21.541Z,99.90
2017-12-16T00:36:49.608Z,99.90
2017-12-16T00:39:17.755Z,99.90
2017-12-16T00:41:46.551Z,99.90
2017-12-16T00:44:15.315Z,99.90
2017-12-16T00:46:43.475Z,99.90
2017-12-16T00:49:11.600Z,99.90
2017-12-16T00:51:39.659Z,99.90
2017-12-16T00:54:08.598Z,99.90
2017-12-16T00:56:36.661Z,99.90
2017-12-16T00:59:04.686Z,99.90
2017-12-16T01:01:33.608Z,99.90
2017-12-16T01:04:01.677Z,99.90
2017-12-16T01:06:29.744Z,99.90
2017-12-16T01:08:57.914Z,99.90
2017-12-16T01:11:26.723Z,99.90
2017-12-16T01:13:54.791Z,99.90
2017-12-16T01:16:23.121Z,99.90
2017-12-16T01:18:51.307Z,99.90
2017-12-16T01:21:19.389Z,99.90
2017-12-16T01:23:48.336Z,99.90
2017-12-16T01:26:16.383Z,99.90
2017-12-16T01:28:44.418Z,99.90
2017-12-16T01:31:12.640Z,99.90
2017-12-16T01:33:52.031Z,99.90
2017-12-16T01:36:31.708Z,99.90
2017-12-16T01:38:59.783Z,99.90
2017-12-16T01:41:28.055Z,99.90
2017-12-16T01:43:56.220Z,99.90
2017-12-16T01:46:25.020Z,99.90
2017-12-16T01:48:53.125Z,99.90
2017-12-16T01:51:21.412Z,99.90
2017-12-16T01:53:49.563Z,99.90
2017-12-16T01:56:17.727Z,99.90
2017-12-16T01:58:45.994Z,99.90
2017-12-16T02:01:14.876Z,99.90
2017-12-16T02:03:43.830Z,99.90
2017-12-16T02:06:12.248Z,99.90
2017-12-16T02:08:41.048Z,99.90
2017-12-16T02:11:09.903Z,99.90
2017-12-16T02:13:38.095Z,99.90
2017-12-16T02:16:06.252Z,99.90
2017-12-16T02:18:34.493Z,99.90
2017-12-16T02:21:02.895Z,99.90
2017-12-16T02:23:31.604Z,99.90
2017-12-16T02:25:59.884Z,99.90
2017-12-16T02:28:28.207Z,99.90
2017-12-16T02:30:56.431Z,99.90
2017-12-16T02:33:24.570Z,99.90
2017-12-16T02:35:52.990Z,99.90
2017-12-16T02:38:21.244Z,99.90
2017-12-16T02:40:49.295Z,99.90
2017-12-16T02:43:17.748Z,99.90
2017-12-16T02:45:46.651Z,99.90
2017-12-16T02:48:15.665Z,99.90
2017-12-16T02:50:44.059Z,99.90
2017-12-16T02:53:12.323Z,99.90
2017-12-16T02:55:40.496Z,99.90
2017-12-16T02:58:08.924Z,99.90
2017-12-16T03:00:37.116Z,99.90
2017-12-16T03:03:06.056Z,99.90
2017-12-16T03:05:34.471Z,99.90
2017-12-16T03:08:02.833Z,99.90
2017-12-16T03:10:31.183Z,99.90
2017-12-16T03:12:59.669Z,99.90
2017-12-16T03:15:27.982Z,99.90
2017-12-16T03:17:56.235Z,99.90
2017-12-16T03:20:24.807Z,99.90
2017-12-16T03:22:53.088Z,99.90
2017-12-16T03:25:21.390Z,99.90
2017-12-16T03:27:49.816Z,99.90
2017-12-16T03:30:18.843Z,99.90
2017-12-16T03:32:47.156Z,99.90
2017-12-16T03:35:15.548Z,99.90
2017-12-16T03:37:43.818Z,99.90
2017-12-16T03:40:12.128Z,99.90
2017-12-16T03:42:41.303Z,99.90
2017-12-16T03:45:09.574Z,99.90
2017-12-16T03:47:37.881Z,99.10
2017-12-16T03:50:06.860Z,99.90
2017-12-16T03:52:35.149Z,99.90
2017-12-16T03:55:04.033Z,99.40
2017-12-16T03:57:32.328Z,99.40
2017-12-16T04:00:01.204Z,99.90
2017-12-16T04:02:29.383Z,99.90
2017-12-16T04:04:58.513Z,99.90
2017-12-16T04:07:26.639Z,99.90
2017-12-16T04:09:58.075Z,99.90
2017-12-16T04:12:28.783Z,99.90
2017-12-16T04:14:57.222Z,99.90
2017-12-16T04:17:25.439Z,99.90
2017-12-16T04:19:53.748Z,99.90
2017-12-16T04:22:21.959Z,99.90
2017-12-16T04:24:50.891Z,99.90
2017-12-16T04:27:19.119Z,99.90
2017-12-16T04:29:47.376Z,99.90
2017-12-16T04:32:15.563Z,99.90
2017-12-16T04:34:43.786Z,99.90
2017-12-16T04:37:11.951Z,99.90
2017-12-16T04:39:40.141Z,99.90
2017-12-16T04:42:08.512Z,99.90
2017-12-16T04:44:36.792Z,99.90
2017-12-16T04:47:04.996Z,99.90
2017-12-16T04:49:33.379Z,99.90
2017-12-16T04:52:08.819Z,99.90
2017-12-16T04:54:37.111Z,99.90
2017-12-16T04:57:05.339Z,99.90
2017-12-16T04:59:35.484Z,99.90
2017-12-16T05:02:03.680Z,99.90
2017-12-16T05:04:35.565Z,99.90
2017-12-16T05:07:04.052Z,99.90
2017-12-16T05:09:33.694Z,99.90
2017-12-16T05:12:01.804Z,99.80
2017-12-16T05:14:31.131Z,99.90
2017-12-16T05:16:59.282Z,99.50
2017-12-16T05:19:29.960Z,99.40
2017-12-16T05:22:02.426Z,99.20
2017-12-16T05:24:30.707Z,98.80
2017-12-16T05:27:00.365Z,98.50
2017-12-16T05:29:30.720Z,98.60
2017-12-16T05:31:58.795Z,98.60
2017-12-16T05:34:27.947Z,98.50
2017-12-16T05:36:56.329Z,98.10
2017-12-16T05:39:24.692Z,98.30
2017-12-16T05:41:53.553Z,98.20
2017-12-16T05:44:21.921Z,98.20
2017-12-16T05:46:50.060Z,98.30
2017-12-16T05:49:22.814Z,98.00
2017-12-16T05:51:51.500Z,97.80
2017-12-16T05:54:20.469Z,97.80
2017-12-16T05:56:48.849Z,97.80
2017-12-16T05:59:17.144Z,97.40
2017-12-16T06:01:46.050Z,97.40
2017-12-16T06:04:15.275Z,97.30
2017-12-16T06:06:43.667Z,97.30
2017-12-16T06:09:11.887Z,97.40
2017-12-16T06:11:40.092Z,97.50
2017-12-16T06:14:08.331Z,97.30
2017-12-16T06:16:36.573Z,97.20
2017-12-16T06:19:05.007Z,96.70
2017-12-16T06:21:34.118Z,96.70
2017-12-16T06:24:03.095Z,96.60
2017-12-16T06:26:32.323Z,96.80
2017-12-16T06:29:00.800Z,96.70
2017-12-16T06:31:28.948Z,96.40
2017-12-16T06:33:57.164Z,96.40
2017-12-16T06:36:25.463Z,96.50
2017-12-16T06:38:53.670Z,96.50
2017-12-16T06:41:21.804Z,96.40
2017-12-16T06:43:50.844Z,96.40
2017-12-16T06:46:19.796Z,96.20
2017-12-16T06:48:48.173Z,96.20
2017-12-16T06:51:16.472Z,95.70
2017-12-16T06:53:44.766Z,95.80
2017-12-16T06:56:13.152Z,95.70
2017-12-16T06:58:41.446Z,95.70
2017-12-16T07:01:10.467Z,95.50
2017-12-16T07:03:38.617Z,95.50
2017-12-16T07:06:07.697Z,95.40
2017-12-16T07:08:35.937Z,95.40
2017-12-16T07:11:04.132Z,95.40
2017-12-16T07:13:32.415Z,95.40
2017-12-16T07:16:00.615Z,95.30
2017-12-16T07:18:29.626Z,95.60
2017-12-16T07:20:58.656Z,95.20
2017-12-16T07:23:26.852Z,95.20
2017-12-16T07:25:55.112Z,95.20
2017-12-16T07:28:23.523Z,94.80
2017-12-16T07:30:51.613Z,95.00
2017-12-16T07:33:20.455Z,94.80
2017-12-16T07:35:48.743Z,94.80
2017-12-16T07:38:16.763Z,94.50
2017-12-16T07:40:45.593Z,94.40
2017-12-16T07:43:13.751Z,94.40
2017-12-16T07:45:41.841Z,94.40
2017-12-16T07:48:09.933Z,94.20
2017-12-16T07:50:38.096Z,93.90
2017-12-16T07:53:06.142Z,94.10
2017-12-16T07:55:34.187Z,93.90
2017-12-16T07:58:03.090Z,93.00
2017-12-16T08:00:32.067Z,93.00
2017-12-16T08:03:00.905Z,92.50
2017-12-16T08:05:29.156Z,92.50
2017-12-16T08:07:57.971Z,92.10
2017-12-16T08:10:25.972Z,92.20
2017-12-16T08:12:54.123Z,92.10
2017-12-16T08:15:22.694Z,91.30
2017-12-16T08:17:50.785Z,91.50
2017-12-16T08:20:18.888Z,91.20
2017-12-16T08:22:46.934Z,91.30
2017-12-16T08:25:14.906Z,90.90
2017-12-16T08:27:43.055Z,91.30
2017-12-16T08:30:11.316Z,89.40
2017-12-16T08:32:40.023Z,89.60
2017-12-16T08:35:08.143Z,89.60
2017-12-16T08:37:36.132Z,88.50
2017-12-16T08:40:04.876Z,89.70
2017-12-16T08:42:32.951Z,89.70
2017-12-16T08:45:01.018Z,89.00
2017-12-16T08:47:29.019Z,87.80
2017-12-16T08:49:57.286Z,88.30
2017-12-16T08:52:25.337Z,87.90
2017-12-16T08:54:53.331Z,87.40
2017-12-16T08:57:21.551Z,87.40
2017-12-16T08:59:50.378Z,86.20
2017-12-16T09:02:18.449Z,86.00
2017-12-16T09:04:46.554Z,84.40
2017-12-16T09:07:14.559Z,85.50
2017-12-16T09:09:43.377Z,85.10
2017-12-16T09:12:11.582Z,85.10
2017-12-16T09:14:39.600Z,85.30
2017-12-16T09:17:08.331Z,84.10
2017-12-16T09:19:36.442Z,83.90
2017-12-16T09:22:05.190Z,83.00
2017-12-16T09:24:33.182Z,82.90
2017-12-16T09:27:01.337Z,82.60
2017-12-16T09:29:29.372Z,81.60
2017-12-16T09:31:57.510Z,81.00
2017-12-16T09:34:25.619Z,81.80
2017-12-16T09:36:53.664Z,81.10
2017-12-16T09:39:21.639Z,81.60
2017-12-16T09:41:49.770Z,81.60
2017-12-16T09:44:17.770Z,82.30
2017-12-16T09:46:45.763Z,82.90
2017-12-16T09:49:14.696Z,79.20
2017-12-16T09:51:42.742Z,79.20
2017-12-16T09:54:10.703Z,79.70
2017-12-16T09:56:39.506Z,79.80
2017-12-16T09:59:07.508Z,79.80
2017-12-16T10:01:35.639Z,80.00
2017-12-16T10:04:04.511Z,80.00
2017-12-16T10:06:32.651Z,80.00
2017-12-16T10:09:00.712Z,79.10
2017-12-16T10:11:28.879Z,79.50
2017-12-16T10:13:56.863Z,79.50
2017-12-16T10:16:24.867Z,80.70
2017-12-16T10:18:53.056Z,81.40
2017-12-16T10:21:21.092Z,81.50
2017-12-16T10:23:49.082Z,81.30
2017-12-16T10:26:17.285Z,79.80
2017-12-16T10:28:46.062Z,80.30
2017-12-16T10:31:14.827Z,80.20
2017-12-16T10:33:43.143Z,80.20
2017-12-16T10:36:12.006Z,80.60
2017-12-16T10:38:39.999Z,80.60
2017-12-16T10:41:08.907Z,79.40
2017-12-16T10:43:37.684Z,79.00
2017-12-16T10:46:06.471Z,80.00
2017-12-16T10:48:35.299Z,80.40
2017-12-16T10:51:03.431Z,80.40
2017-12-16T10:53:31.574Z,80.50
2017-12-16T10:55:59.813Z,80.10
2017-12-16T10:58:27.915Z,80.60
2017-12-16T11:00:55.975Z,79.70
2017-12-16T11:03:24.103Z,80.00
2017-12-16T11:05:52.103Z,79.70
2017-12-16T11:08:20.172Z,80.70
2017-12-16T11:10:48.319Z,80.30
2017-12-16T11:13:16.368Z,80.70
2017-12-16T11:15:44.347Z,81.30
2017-12-16T11:18:12.488Z,80.70
2017-12-16T11:20:40.556Z,80.60
2017-12-16T11:23:08.651Z,80.30
2017-12-16T11:25:36.824Z,80.40
2017-12-16T11:28:04.856Z,81.00
2017-12-16T11:30:32.924Z,90.00
2017-12-16T11:33:01.901Z,99.50
2017-12-16T11:35:30.746Z,99.90
2017-12-16T11:37:58.838Z,99.90
2017-12-16T11:53:33.875Z,99.90
2017-12-16T11:56:01.907Z,99.90
2017-12-16T11:58:29.937Z,99.90
2017-12-16T12:00:58.070Z,99.90
2017-12-16T12:03:26.141Z,99.90
2017-12-16T12:05:54.143Z,99.90
2017-12-16T12:08:22.267Z,99.90
2017-12-16T12:10:50.292Z,99.90
2017-12-16T12:13:18.242Z,99.90
2017-12-16T12:15:46.403Z,99.90
2017-12-16T12:18:14.446Z,99.90
2017-12-16T12:20:42.525Z,99.90
2017-12-16T12:23:10.700Z,99.90
2017-12-16T12:25:38.718Z,99.90
2017-12-16T12:28:06.770Z,99.90
2017-12-16T12:30:34.847Z,99.90
2017-12-16T12:33:02.945Z,99.90
2017-12-16T12:35:31.136Z,99.90
2017-12-16T12:38:00.053Z,99.90
2017-12-16T12:40:28.067Z,99.90
2017-12-16T12:42:56.079Z,99.90
2017-12-16T12:45:25.019Z,99.90
2017-12-16T12:47:53.038Z,99.90
2017-12-16T12:50:21.840Z,99.90
2017-12-16T12:52:50.735Z,99.90
2017-12-16T12:55:19.552Z,99.90
2017-12-16T12:57:47.583Z,99.90
2017-12-16T13:00:16.463Z,99.90
2017-12-16T13:02:44.524Z,99.90
2017-12-16T13:05:12.534Z,99.90
2017-12-16T13:07:41.457Z,99.90
2017-12-16T13:10:09.527Z,99.90
2017-12-16T13:12:37.572Z,99.90
2017-12-16T13:15:06.588Z,99.90
2017-12-16T13:17:34.607Z,99.90
2017-12-16T13:20:02.652Z,99.90
2017-12-16T13:22:30.793Z,99.90
2017-12-16T13:24:58.831Z,99.90
2017-12-16T13:27:26.888Z,99.90
2017-12-16T13:29:55.026Z,99.90
2017-12-16T13:32:23.823Z,99.90
2017-12-16T13:34:51.876Z,99.90
2017-12-16T13:37:20.208Z,99.90
2017-12-16T13:39:48.338Z,99.90
2017-12-16T13:42:16.356Z,99.90
2017-12-16T13:44:44.487Z,99.90
2017-12-16T13:47:12.548Z,99.90
2017-12-16T13:49:40.568Z,99.90
2017-12-16T13:52:08.747Z,99.90
2017-12-16T13:54:36.779Z,99.90
2017-12-16T13:57:04.916Z,99.90
2017-12-16T13:59:33.834Z,99.90
2017-12-16T14:02:01.892Z,99.90
2017-12-16T14:04:30.692Z,99.90
2017-12-16T14:06:59.647Z,99.90
2017-12-16T14:09:27.658Z,99.90
2017-12-16T14:11:55.709Z,99.90
2017-12-16T14:14:24.617Z,99.90
2017-12-16T14:16:53.415Z,99.90
2017-12-16T14:19:21.439Z,99.90
2017-12-16T14:21:49.646Z,99.90
2017-12-16T14:24:18.457Z,99.90
2017-12-16T14:26:46.603Z,99.90
2017-12-16T14:29:15.679Z,99.90
2017-12-16T14:31:43.704Z,99.90
2017-12-16T14:34:11.765Z,99.90
2017-12-16T14:36:39.965Z,99.90
2017-12-16T14:39:08.144Z,99.90
2017-12-16T14:41:36.353Z,99.90
2017-12-16T14:44:04.567Z,99.90
2017-12-16T14:46:33.392Z,99.90
2017-12-16T14:49:01.410Z,99.90
2017-12-16T14:51:30.299Z,99.90
2017-12-16T14:53:58.311Z,99.90
2017-12-16T14:56:26.416Z,99.90
2017-12-16T14:58:54.550Z,99.90
2017-12-16T15:01:22.609Z,99.90
2017-12-16T15:03:51.428Z,99.90
2017-12-16T15:06:19.610Z,99.90
2017-12-16T15:08:47.631Z,99.90
2017-12-16T15:11:16.398Z,99.90
2017-12-16T15:13:44.519Z,99.90
2017-12-16T15:16:12.527Z,99.90
2017-12-16T15:18:40.538Z,99.90
2017-12-16T15:21:09.407Z,99.90
2017-12-16T15:23:37.435Z,99.90
2017-12-16T15:26:05.455Z,99.90
2017-12-16T15:28:33.653Z,99.90
2017-12-16T15:31:02.456Z,99.90
2017-12-16T15:33:31.248Z,99.90
2017-12-16T15:36:00.160Z,99.90
2017-12-16T15:38:28.191Z,99.90
2017-12-16T15:40:57.135Z,99.90
2017-12-16T15:43:25.321Z,99.90
2017-12-16T15:45:53.335Z,99.90
2017-12-16T15:48:22.142Z,99.90
2017-12-16T15:50:51.070Z,99.90
2017-12-16T15:53:19.132Z,99.90
2017-12-16T15:55:47.188Z,99.90
2017-12-16T15:58:15.330Z,99.90
2017-12-16T16:00:44.217Z,99.90
2017-12-16T16:03:12.333Z,99.90
2017-12-16T16:05:40.527Z,99.90
2017-12-16T16:08:08.553Z,99.90
2017-12-16T16:10:37.408Z,99.90
2017-12-16T16:13:05.666Z,99.90
2017-12-16T16:15:33.757Z,99.90
2017-12-16T16:18:01.836Z,99.90
2017-12-16T16:20:30.097Z,99.90
2017-12-16T16:22:58.148Z,99.90
2017-12-16T16:25:26.213Z,99.90
2017-12-16T16:27:54.387Z,99.90
2017-12-16T16:30:22.460Z,99.90
2017-12-16T16:32:50.529Z,99.90
2017-12-16T16:35:18.729Z,99.90
2017-12-16T16:37:46.802Z,99.90
2017-12-16T16:40:14.888Z,99.90
2017-12-16T16:42:43.195Z,99.90
2017-12-16T16:45:11.253Z,99.90
2017-12-16T16:47:39.346Z,99.90
2017-12-16T16:50:08.303Z,99.90
2017-12-16T16:52:36.392Z,99.90
2017-12-16T16:55:04.471Z,99.90
2017-12-16T16:57:32.684Z,99.90
2017-12-16T17:00:01.451Z,99.90
2017-12-16T17:02:29.508Z,99.90
2017-12-16T17:04:57.658Z,99.90
2017-12-16T17:07:25.698Z,99.90
2017-12-16T17:09:53.756Z,99.90
2017-12-16T17:12:22.693Z,99.90
2017-12-16T17:14:50.735Z,99.90
2017-12-16T17:17:19.514Z,99.90
2017-12-16T17:19:48.482Z,99.90
2017-12-16T17:22:16.646Z,99.90
2017-12-16T17:24:44.734Z,99.90
2017-12-16T17:27:12.934Z,99.90
2017-12-16T17:29:41.797Z,99.90
2017-12-16T17:32:09.868Z,99.90
2017-12-16T17:34:38.023Z,99.90
2017-12-16T17:37:06.076Z,99.90
2017-12-16T17:39:34.192Z,99.90
2017-12-16T17:42:02.343Z,99.90
2017-12-16T17:44:30.515Z,99.90
2017-12-16T17:46:58.599Z,99.90
2017-12-16T17:49:26.747Z,99.90
2017-12-16T17:51:54.825Z,99.90
2017-12-16T17:54:22.847Z,99.90
2017-12-16T17:56:51.745Z,99.90
2017-12-16T17:59:20.581Z,99.90
2017-12-16T18:01:48.622Z,99.90
2017-12-16T18:04:17.550Z,99.90
2017-12-16T18:06:45.607Z,99.90
2017-12-16T18:09:13.673Z,99.90
2017-12-16T18:11:41.894Z,99.90
2017-12-16T18:14:09.971Z,99.90
2017-12-16T18:16:38.659Z,99.90
2017-12-16T18:19:06.814Z,99.90
2017-12-16T18:21:34.878Z,99.90
2017-12-16T18:24:02.957Z,99.90
2017-12-16T18:26:31.131Z,99.90
2017-12-16T18:28:59.174Z,99.90
2017-12-16T18:31:27.203Z,99.90
2017-12-16T18:33:55.363Z,99.90
2017-12-16T18:36:23.407Z,99.90
2017-12-16T18:38:51.447Z,99.90
2017-12-16T18:41:20.367Z,99.90
2017-12-16T18:43:48.444Z,99.90
2017-12-16T18:46:16.618Z,99.90
2017-12-16T18:48:44.810Z,99.90
2017-12-16T18:51:12.838Z,99.90
2017-12-16T18:53:41.632Z,99.90
2017-12-16T18:56:10.600Z,99.90
2017-12-16T18:58:38.656Z,99.90
2017-12-16T19:01:06.853Z,99.90
2017-12-16T19:03:35.004Z,99.90
2017-12-16T19:06:03.043Z,99.90
2017-12-16T19:08:31.067Z,99.90
2017-12-16T19:10:59.214Z,99.90
2017-12-16T19:13:27.272Z,99.90
2017-12-16T19:15:55.340Z,99.90
2017-12-16T19:18:23.525Z,99.90
2017-12-16T19:20:51.563Z,99.90
2017-12-16T19:23:19.656Z,99.90
2017-12-16T19:25:47.868Z,99.90
2017-12-16T19:28:15.941Z,99.90
2017-12-16T19:30:44.038Z,99.90
2017-12-16T19:33:13.004Z,99.90
2017-12-16T19:35:41.029Z,99.90
2017-12-16T19:38:09.143Z,99.90
2017-12-16T19:40:37.353Z,99.90
2017-12-16T19:43:05.420Z,99.90
2017-12-16T19:45:33.464Z,99.90
2017-12-16T19:48:01.743Z,99.90
2017-12-16T19:50:29.906Z,99.90
2017-12-16T19:52:57.968Z,99.90
2017-12-16T19:55:26.121Z,99.90
2017-12-16T19:57:54.945Z,99.90
2017-12-16T20:00:23.072Z,99.90
2017-12-16T20:02:51.987Z,99.90
2017-12-16T20:05:20.030Z,99.90
2017-12-16T20:07:48.048Z,99.90
2017-12-16T20:10:16.231Z,99.90
2017-12-16T20:12:44.250Z,99.90
2017-12-16T20:15:13.056Z,99.90
2017-12-16T20:17:42.031Z,99.90
2017-12-16T20:20:10.109Z,99.90
2017-12-16T20:22:38.883Z,99.90
2017-12-16T20:25:07.161Z,99.90
2017-12-16T20:27:35.203Z,99.90
2017-12-16T20:30:03.275Z,99.90
2017-12-16T20:32:31.481Z,99.90
2017-12-16T20:34:59.556Z,99.90
2017-12-16T20:37:27.646Z,99.90
2017-12-16T20:39:56.550Z,99.90
2017-12-16T20:42:25.382Z,99.90
2017-12-16T20:44:53.441Z,99.90
2017-12-16T20:47:21.724Z,99.90
2017-12-16T20:49:49.928Z,99.90
2017-12-16T20:52:18.072Z,99.90
2017-12-16T20:54:46.276Z,99.90
2017-12-16T20:57:14.312Z,99.90
2017-12-16T20:59:42.347Z,99.90
2017-12-16T21:02:11.277Z,99.90
2017-12-16T21:04:39.328Z,99.90
2017-12-16T21:07:08.059Z,99.90
2017-12-16T21:09:36.233Z,99.90
2017-12-16T21:12:04.242Z,99.90
2017-12-16T21:14:32.293Z,99.90
2017-12-16T21:17:00.489Z,99.90
2017-12-16T21:19:29.296Z,99.90
2017-12-16T21:21:58.083Z,99.90
2017-12-16T21:24:26.968Z,99.90
2017-12-16T21:26:55.765Z,99.90
2017-12-16T21:29:24.515Z,99.90
2017-12-16T21:31:53.614Z,99.90
2017-12-16T21:34:21.672Z,99.90
2017-12-16T21:36:49.682Z,99.90
2017-12-16T21:39:17.810Z,99.90
2017-12-16T21:41:45.811Z,99.90
2017-12-16T21:44:13.860Z,99.90
2017-12-16T21:46:42.029Z,99.90
2017-12-16T21:49:10.039Z,99.90
2017-12-16T21:51:38.203Z,99.90
2017-12-16T21:54:06.335Z,99.90
2017-12-16T21:56:34.384Z,99.90
2017-12-16T21:59:03.126Z,99.90
2017-12-16T22:01:31.270Z,99.90
2017-12-16T22:03:59.300Z,99.90
2017-12-16T22:06:27.311Z,99.90
2017-12-16T22:08:55.529Z,99.90
2017-12-16T22:11:23.644Z,99.90
2017-12-16T22:13:52.444Z,99.90
2017-12-16T22:16:20.974Z,99.90
2017-12-16T22:18:48.979Z,99.90
2017-12-16T22:21:17.768Z,99.90
2017-12-16T22:23:46.635Z,99.90
2017-12-16T22:26:14.646Z,99.90
2017-12-16T22:28:43.452Z,99.90
2017-12-16T22:31:11.578Z,99.90
2017-12-16T22:33:39.715Z,99.90
2017-12-16T22:36:07.752Z,99.90
2017-12-16T22:38:36.659Z,99.90
2017-12-16T22:41:04.803Z,99.90
2017-12-16T22:43:33.596Z,99.90
2017-12-16T22:46:02.529Z,99.90
2017-12-16T22:48:30.624Z,99.90
2017-12-16T22:50:58.688Z,99.90
2017-12-16T22:53:26.968Z,99.90
2017-12-16T22:55:55.269Z,99.90
2017-12-16T22:58:23.336Z,99.90
2017-12-16T23:00:51.543Z,99.90
2017-12-16T23:03:20.353Z,99.90
2017-12-16T23:05:48.624Z,99.90
2017-12-16T23:08:17.655Z,99.90
2017-12-16T23:10:45.828Z,99.90
2017-12-16T23:13:13.968Z,99.90
2017-12-16T23:15:43.123Z,99.90
2017-12-16T23:18:11.295Z,99.90
2017-12-16T23:20:39.537Z,99.90
2017-12-16T23:23:07.824Z,99.90
2017-12-16T23:25:36.046Z,99.90
2017-12-16T23:28:04.306Z,99.90
2017-12-16T23:30:32.586Z,99.90
2017-12-16T23:33:00.836Z,99.90
2017-12-16T23:35:29.084Z,99.90
2017-12-16T23:37:57.274Z,99.90
2017-12-16T23:40:25.550Z,99.90
2017-12-16T23:42:53.816Z,99.90
2017-12-16T23:45:22.169Z,99.90
2017-12-16T23:47:50.289Z,99.90
2017-12-16T23:50:18.367Z,99.90
2017-12-16T23:52:46.614Z,99.90
2017-12-16T23:55:15.768Z,99.90
2017-12-16T23:57:43.968Z,99.90
